createdAt,value
2022-08-05T00:01:28.059Z,20.97
2022-08-05T00:03:57.052Z,20.85
2022-08-05T00:06:29.357Z,20.92
2022-08-05T00:09:00.196Z,20.71
2022-08-05T00:11:30.406Z,20.71
2022-08-05T00:14:02.593Z,20.63
2022-08-05T00:16:52.870Z,20.58
2022-08-05T00:19:22.476Z,20.61
2022-08-05T00:21:49.256Z,20.67
2022-08-05T00:24:16.090Z,20.57
2022-08-05T00:26:50.769Z,20.56
2022-08-05T00:29:18.813Z,20.65
2022-08-05T00:32:10.206Z,20.53
2022-08-05T00:34:56.202Z,20.75
2022-08-05T00:37:22.242Z,20.72
2022-08-05T00:39:58.114Z,20.55
2022-08-05T00:42:37.857Z,20.53
2022-08-05T00:45:08.486Z,20.31
2022-08-05T00:47:56.886Z,20.19
2022-08-05T00:50:22.296Z,20.02
2022-08-05T00:52:52.021Z,19.95
2022-08-05T00:55:19.885Z,20.12
2022-08-05T00:57:57.832Z,20.16
2022-08-05T01:00:26.030Z,20.11
2022-08-05T01:02:52.614Z,20.05
2022-08-05T01:05:19.469Z,20.07
2022-08-05T01:08:42.039Z,19.91
2022-08-05T01:10:38.313Z,20.06
2022-08-05T01:13:12.853Z,20.18
2022-08-05T01:15:47.879Z,20.11
2022-08-05T01:18:16.445Z,19.93
2022-08-05T01:21:03.968Z,19.89
2022-08-05T01:24:14.318Z,20.00
2022-08-05T01:26:52.285Z,20.18
2022-08-05T01:29:35.070Z,20.20
2022-08-05T01:32:03.790Z,20.38
2022-08-05T01:34:38.545Z,20.32
2022-08-05T01:37:24.665Z,20.32
2022-08-05T01:39:54.768Z,20.10
2022-08-05T01:42:26.617Z,20.06
2022-08-05T01:44:56.473Z,19.85
2022-08-05T01:47:38.876Z,19.76
2022-08-05T01:50:28.653Z,19.80
2022-08-05T01:53:00.395Z,19.82
2022-08-05T01:55:29.119Z,19.73
2022-08-05T01:58:10.810Z,19.70
2022-08-05T02:00:48.701Z,19.78
2022-08-05T02:03:29.255Z,19.86
2022-08-05T02:06:03.600Z,19.86
2022-08-05T02:08:57.801Z,19.90
2022-08-05T02:11:33.672Z,19.74
2022-08-05T02:14:12.459Z,19.75
2022-08-05T02:16:53.102Z,19.61
2022-08-05T02:19:22.766Z,19.63
2022-08-05T02:22:25.407Z,19.68
2022-08-05T02:25:00.024Z,19.61
2022-08-05T02:27:30.198Z,19.61
2022-08-05T02:30:13.833Z,19.62
2022-08-05T02:32:40.668Z,19.39
2022-08-05T02:35:14.302Z,19.32
2022-08-05T02:37:47.814Z,19.32
2022-08-05T02:40:21.611Z,19.40
2022-08-05T02:42:53.016Z,19.42
2022-08-05T02:45:24.121Z,19.43
2022-08-05T02:48:07.591Z,19.44
2022-08-05T02:50:38.938Z,19.37
2022-08-05T02:53:11.798Z,19.28
2022-08-05T02:55:53.802Z,19.26
2022-08-05T02:58:23.335Z,19.21
2022-08-05T03:00:55.992Z,19.13
2022-08-05T03:03:23.393Z,19.25
2022-08-05T03:06:53.878Z,19.38
2022-08-05T03:08:42.550Z,19.43
2022-08-05T03:11:54.362Z,19.33
2022-08-05T03:14:04.740Z,19.35
2022-08-05T03:16:31.647Z,19.31
2022-08-05T03:18:58.236Z,19.09
2022-08-05T03:21:24.642Z,19.17
2022-08-05T03:23:55.636Z,19.06
2022-08-05T03:26:31.595Z,19.11
2022-08-05T03:28:59.014Z,19.14
2022-08-05T03:31:56.791Z,19.23
2022-08-05T03:34:12.422Z,19.19
2022-08-05T03:36:38.833Z,19.31
2022-08-05T03:39:07.978Z,19.30
2022-08-05T03:41:38.685Z,19.14
2022-08-05T03:44:12.145Z,19.36
2022-08-05T03:46:38.629Z,19.22
2022-08-05T03:49:05.092Z,19.19
2022-08-05T03:52:39.166Z,19.08
2022-08-05T03:55:52.916Z,19.19
2022-08-05T03:57:42.636Z,18.92
2022-08-05T04:00:16.010Z,19.10
2022-08-05T04:02:52.310Z,19.03
2022-08-05T04:05:25.535Z,18.89
2022-08-05T04:07:58.623Z,18.90
2022-08-05T04:10:27.768Z,18.80
2022-08-05T04:12:55.330Z,18.81
2022-08-05T04:15:24.578Z,18.74
2022-08-05T04:17:56.368Z,18.75
2022-08-05T04:20:24.224Z,18.80
2022-08-05T04:22:50.699Z,18.76
2022-08-05T04:25:17.224Z,18.71
2022-08-05T04:27:56.861Z,18.51
2022-08-05T04:30:26.445Z,18.59
2022-08-05T04:32:53.098Z,18.70
2022-08-05T04:35:20.015Z,18.71
2022-08-05T04:38:00.979Z,18.71
2022-08-05T04:40:29.568Z,18.75
2022-08-05T04:42:55.983Z,18.74
2022-08-05T04:45:31.206Z,18.84
2022-08-05T04:48:18.593Z,18.77
2022-08-05T04:51:03.044Z,18.43
2022-08-05T04:53:38.914Z,18.39
2022-08-05T04:56:33.769Z,18.42
2022-08-05T04:58:55.188Z,18.35
2022-08-05T05:01:33.752Z,18.47
2022-08-05T05:04:08.076Z,18.54
2022-08-05T05:06:44.265Z,18.56
2022-08-05T05:09:14.083Z,18.66
2022-08-05T05:11:53.237Z,18.54
2022-08-05T05:14:31.605Z,18.56
2022-08-05T05:17:02.112Z,18.57
2022-08-05T05:19:36.303Z,18.58
2022-08-05T05:22:23.097Z,18.57
2022-08-05T05:24:57.573Z,18.44
2022-08-05T05:27:41.762Z,18.32
2022-08-05T05:30:15.275Z,18.31
2022-08-05T05:32:56.625Z,18.29
2022-08-05T05:35:23.290Z,18.20
2022-08-05T05:38:02.921Z,18.23
2022-08-05T05:40:31.422Z,18.20
2022-08-05T05:42:59.082Z,18.32
2022-08-05T05:45:25.776Z,18.41
2022-08-05T05:48:06.678Z,18.30
2022-08-05T05:50:41.295Z,18.40
2022-08-05T05:53:21.997Z,18.51
2022-08-05T05:55:52.030Z,18.48
2022-08-05T05:58:30.354Z,18.54
2022-08-05T06:01:13.078Z,18.57
2022-08-05T06:04:00.415Z,18.61
2022-08-05T06:06:31.190Z,18.56
2022-08-05T06:08:59.758Z,18.48
2022-08-05T06:11:26.211Z,18.55
2022-08-05T06:13:55.626Z,18.46
2022-08-05T06:16:29.200Z,18.54
2022-08-05T06:19:05.826Z,18.55
2022-08-05T06:21:36.690Z,18.57
2022-08-05T06:24:06.154Z,18.54
2022-08-05T06:26:35.025Z,18.50
2022-08-05T06:29:03.672Z,18.59
2022-08-05T06:31:49.459Z,18.47
2022-08-05T06:34:17.360Z,18.52
2022-08-05T06:36:57.123Z,18.56
2022-08-05T06:39:26.812Z,18.58
2022-08-05T06:41:55.213Z,18.51
2022-08-05T06:44:22.265Z,18.37
2022-08-05T06:46:50.704Z,18.42
2022-08-05T06:49:17.674Z,18.32
2022-08-05T06:51:45.456Z,18.24
2022-08-05T06:54:12.093Z,18.30
2022-08-05T06:56:54.939Z,18.14
2022-08-05T06:59:38.909Z,17.98
2022-08-05T07:02:08.829Z,17.80
2022-08-05T07:04:35.311Z,17.76
2022-08-05T07:07:03.122Z,17.76
2022-08-05T07:09:40.487Z,17.81
2022-08-05T07:12:29.739Z,17.79
2022-08-05T07:15:14.413Z,17.68
2022-08-05T07:18:07.272Z,17.35
2022-08-05T07:20:37.077Z,17.28
2022-08-05T07:23:05.455Z,17.35
2022-08-05T07:25:56.311Z,17.46
2022-08-05T07:28:19.504Z,17.24
2022-08-05T07:30:50.275Z,17.28
2022-08-05T07:33:21.268Z,17.22
2022-08-05T07:36:20.214Z,17.22
2022-08-05T07:38:46.906Z,17.32
2022-08-05T07:42:13.332Z,17.37
2022-08-05T07:44:06.307Z,17.54
2022-08-05T07:46:41.092Z,17.42
2022-08-05T07:49:13.667Z,17.50
2022-08-05T07:51:54.523Z,17.39
2022-08-05T07:54:30.866Z,17.30
2022-08-05T07:57:14.011Z,17.32
2022-08-05T07:59:44.637Z,17.32
2022-08-05T08:02:15.900Z,17.27
2022-08-05T08:04:47.539Z,17.33
2022-08-05T08:07:14.975Z,17.33
2022-08-05T08:09:41.793Z,17.21
2022-08-05T08:12:27.430Z,17.34
2022-08-05T08:14:55.137Z,17.14
2022-08-05T08:17:21.880Z,17.33
2022-08-05T08:20:22.670Z,17.22
2022-08-05T08:22:35.626Z,17.23
2022-08-05T08:25:03.414Z,17.29
2022-08-05T08:27:40.256Z,17.33
2022-08-05T08:30:28.623Z,17.47
2022-08-05T08:33:04.814Z,17.37
2022-08-05T08:35:41.383Z,17.29
2022-08-05T08:38:18.944Z,17.40
2022-08-05T08:41:08.425Z,17.29
2022-08-05T08:45:23.974Z,17.19
2022-08-05T08:46:24.001Z,17.25
2022-08-05T08:49:08.034Z,17.21
2022-08-05T08:52:03.312Z,17.20
2022-08-05T08:54:27.322Z,17.05
2022-08-05T08:56:54.186Z,17.18
2022-08-05T08:59:23.435Z,17.28
2022-08-05T09:01:57.065Z,17.10
2022-08-05T09:04:30.492Z,17.14
2022-08-05T09:06:57.692Z,17.24
2022-08-05T09:09:25.069Z,17.22
2022-08-05T09:11:55.289Z,17.25
2022-08-05T09:14:56.575Z,17.19
2022-08-05T09:17:40.223Z,17.22
2022-08-05T09:20:02.551Z,17.31
2022-08-05T09:23:05.137Z,17.28
2022-08-05T09:26:00.129Z,17.29
2022-08-05T09:28:32.065Z,17.34
2022-08-05T09:31:43.443Z,17.37
2022-08-05T09:33:58.638Z,17.42
2022-08-05T09:36:45.822Z,17.47
2022-08-05T09:39:22.990Z,17.57
2022-08-05T09:42:00.586Z,17.72
2022-08-05T09:44:41.969Z,17.73
2022-08-05T09:47:13.989Z,17.80
2022-08-05T09:50:00.466Z,17.73
2022-08-05T09:52:32.133Z,17.85
2022-08-05T09:55:55.029Z,18.04
2022-08-05T09:57:54.576Z,18.19
2022-08-05T10:00:25.822Z,18.13
2022-08-05T10:02:54.648Z,18.09
2022-08-05T10:05:24.455Z,18.05
2022-08-05T10:08:36.917Z,17.96
2022-08-05T10:10:54.191Z,18.00
2022-08-05T10:13:44.189Z,18.06
2022-08-05T10:16:41.803Z,17.83
2022-08-05T10:19:23.283Z,17.67
2022-08-05T10:21:50.493Z,17.81
2022-08-05T10:24:18.222Z,17.72
2022-08-05T10:26:51.328Z,17.82
2022-08-05T10:29:24.140Z,17.70
2022-08-05T10:32:51.846Z,17.83
2022-08-05T10:34:55.333Z,17.80
2022-08-05T10:37:22.210Z,17.93
2022-08-05T10:40:03.749Z,18.02
2022-08-05T10:42:43.642Z,17.89
2022-08-05T10:45:23.928Z,17.83
2022-08-05T10:48:29.971Z,18.06
2022-08-05T10:50:58.824Z,17.98
2022-08-05T10:53:34.078Z,17.80
2022-08-05T10:56:21.281Z,17.81
2022-08-05T10:58:54.652Z,17.80
2022-08-05T11:01:54.998Z,17.81
2022-08-05T11:04:22.828Z,17.90
2022-08-05T11:07:00.450Z,18.17
2022-08-05T11:09:39.284Z,18.25
2022-08-05T11:12:24.850Z,18.39
2022-08-05T11:15:20.805Z,18.57
2022-08-05T11:17:59.554Z,18.78
2022-08-05T11:20:46.057Z,18.76
2022-08-05T11:23:33.011Z,18.55
2022-08-05T11:26:16.363Z,18.58
2022-08-05T11:28:56.065Z,18.91
2022-08-05T11:31:56.486Z,19.45
2022-08-05T11:34:18.052Z,19.99
2022-08-05T11:36:52.826Z,20.32
2022-08-05T11:39:49.486Z,20.79
2022-08-05T11:42:24.175Z,21.02
2022-08-05T11:45:02.477Z,20.75
2022-08-05T11:47:49.317Z,20.58
2022-08-05T11:50:16.460Z,20.99
2022-08-05T11:52:44.103Z,21.40
2022-08-05T11:55:13.466Z,21.59
2022-08-05T11:58:10.355Z,22.56
2022-08-05T12:00:32.068Z,23.41
2022-08-05T12:03:29.194Z,22.83
2022-08-05T12:06:02.409Z,22.30
2022-08-05T12:08:29.028Z,22.48
2022-08-05T12:11:05.672Z,22.65
2022-08-05T12:13:48.478Z,22.92
2022-08-05T12:16:18.820Z,23.81
2022-08-05T12:18:49.554Z,24.02
2022-08-05T12:21:23.645Z,23.73
2022-08-05T12:24:04.897Z,24.75
2022-08-05T12:26:44.279Z,24.36
2022-08-05T12:29:22.597Z,24.10
2022-08-05T12:31:54.512Z,23.56
2022-08-05T12:34:30.305Z,22.85
2022-08-05T12:37:00.209Z,22.41
2022-08-05T12:39:34.402Z,22.70
2022-08-05T12:42:08.540Z,24.41
2022-08-05T12:44:35.116Z,25.32
2022-08-05T12:47:02.623Z,25.73
2022-08-05T12:50:03.257Z,25.00
2022-08-05T12:52:39.190Z,23.83
2022-08-05T12:55:22.675Z,23.71
2022-08-05T12:58:49.789Z,22.99
2022-08-05T13:02:01.963Z,22.93
2022-08-05T13:03:32.435Z,22.75
2022-08-05T13:05:59.556Z,22.51
2022-08-05T13:08:29.727Z,22.18
2022-08-05T13:11:01.004Z,21.85
2022-08-05T13:14:06.784Z,21.37
2022-08-05T13:16:17.110Z,21.09
2022-08-05T13:18:57.583Z,20.93
2022-08-05T13:21:27.720Z,21.03
2022-08-05T13:23:55.172Z,20.91
2022-08-05T13:26:29.825Z,21.06
2022-08-05T13:28:56.741Z,21.13
2022-08-05T13:32:03.094Z,21.19
2022-08-05T13:34:22.502Z,21.45
2022-08-05T13:36:51.652Z,23.20
2022-08-05T13:39:24.524Z,24.70
2022-08-05T13:42:04.648Z,26.39
2022-08-05T13:44:32.417Z,27.09
2022-08-05T13:47:04.971Z,28.70
2022-08-05T13:49:35.806Z,29.53
2022-08-05T13:52:16.471Z,27.18
2022-08-05T13:54:43.022Z,25.05
2022-08-05T13:57:20.809Z,24.04
2022-08-05T13:59:57.493Z,23.07
2022-08-05T14:02:29.855Z,22.33
2022-08-05T14:05:15.452Z,21.84
2022-08-05T14:07:59.535Z,21.30
2022-08-05T14:10:32.206Z,20.98
2022-08-05T14:12:59.390Z,20.83
2022-08-05T14:16:06.161Z,20.95
2022-08-05T14:18:17.699Z,20.84
2022-08-05T14:20:46.871Z,20.78
2022-08-05T14:23:13.864Z,20.83
2022-08-05T14:25:44.964Z,20.91
2022-08-05T14:28:26.068Z,20.91
2022-08-05T14:30:53.655Z,20.87
2022-08-05T14:33:22.971Z,21.03
2022-08-05T14:35:51.831Z,21.09
2022-08-05T14:38:27.793Z,21.17
2022-08-05T14:40:59.626Z,21.17
2022-08-05T14:43:57.672Z,21.19
2022-08-05T14:46:12.495Z,21.19
2022-08-05T14:48:38.933Z,21.24
2022-08-05T14:51:05.357Z,21.34
2022-08-05T14:53:34.881Z,21.41
2022-08-05T14:56:11.180Z,21.36
2022-08-05T14:58:38.547Z,21.43
2022-08-05T15:01:15.998Z,21.52
2022-08-05T15:03:43.291Z,21.34
2022-08-05T15:06:15.146Z,21.45
2022-08-05T15:08:57.717Z,21.69
2022-08-05T15:11:52.692Z,21.82
2022-08-05T15:14:11.690Z,22.01
2022-08-05T15:16:58.074Z,22.21
2022-08-05T15:19:24.467Z,22.14
2022-08-05T15:21:51.214Z,22.18
2022-08-05T15:24:18.263Z,21.98
2022-08-05T15:26:46.414Z,22.32
2022-08-05T15:29:15.132Z,22.52
2022-08-05T15:31:41.699Z,22.76
2022-08-05T15:34:31.381Z,23.19
2022-08-05T15:36:54.610Z,23.07
2022-08-05T15:41:01.025Z,22.72
2022-08-05T15:42:54.187Z,22.40
2022-08-05T15:44:54.904Z,22.00
2022-08-05T15:47:22.372Z,21.84
2022-08-05T15:49:59.246Z,22.01
2022-08-05T15:52:52.320Z,21.93
2022-08-05T15:55:15.733Z,22.03
2022-08-05T15:57:43.369Z,21.50
2022-08-05T16:00:12.316Z,21.27
2022-08-05T16:02:43.245Z,21.21
2022-08-05T16:05:09.797Z,21.09
2022-08-05T16:07:37.805Z,21.08
2022-08-05T16:10:04.571Z,20.87
2022-08-05T16:12:36.071Z,21.16
2022-08-05T16:15:04.375Z,20.97
2022-08-05T16:17:31.329Z,21.06
2022-08-05T16:20:05.297Z,21.38
2022-08-05T16:22:37.923Z,21.71
2022-08-05T16:25:08.009Z,21.60
2022-08-05T16:27:47.090Z,21.52
2022-08-05T16:30:26.259Z,21.51
2022-08-05T16:32:52.998Z,21.74
2022-08-05T16:35:19.414Z,21.97
2022-08-05T16:38:02.845Z,22.32
2022-08-05T16:40:41.094Z,21.88
2022-08-05T16:43:07.561Z,21.62
2022-08-05T16:46:04.965Z,21.43
2022-08-05T16:48:25.136Z,21.43
2022-08-05T16:50:53.182Z,21.34
2022-08-05T16:53:22.669Z,21.45
2022-08-05T16:55:58.157Z,21.84
2022-08-05T16:58:25.000Z,21.88
2022-08-05T17:00:51.854Z,21.52
2022-08-05T17:03:20.176Z,21.17
2022-08-05T17:05:54.096Z,21.06
2022-08-05T17:08:35.806Z,20.95
2022-08-05T17:11:16.921Z,21.07
2022-08-05T17:13:44.711Z,21.04
2022-08-05T17:16:32.526Z,20.98
2022-08-05T17:18:58.098Z,20.86
2022-08-05T17:21:24.593Z,20.86
2022-08-05T17:24:04.549Z,20.74
2022-08-05T17:26:35.466Z,20.79
2022-08-05T17:29:07.392Z,20.83
2022-08-05T17:31:56.575Z,20.82
2022-08-05T17:34:29.952Z,20.77
2022-08-05T17:36:59.857Z,20.56
2022-08-05T17:39:33.568Z,20.32
2022-08-05T17:42:17.541Z,20.29
2022-08-05T17:44:50.088Z,20.27
2022-08-05T17:47:18.577Z,20.21
2022-08-05T17:49:51.960Z,20.24
2022-08-05T17:52:30.265Z,20.33
2022-08-05T17:54:56.724Z,20.23
2022-08-05T17:57:23.184Z,20.27
2022-08-05T18:00:03.548Z,20.11
2022-08-05T18:02:32.515Z,20.13
2022-08-05T18:05:02.693Z,20.10
2022-08-05T18:07:32.856Z,20.16
2022-08-05T18:10:10.442Z,20.00
2022-08-05T18:12:37.277Z,19.75
2022-08-05T18:15:04.741Z,19.75
2022-08-05T18:18:01.459Z,19.74
2022-08-05T18:20:19.177Z,19.66
2022-08-05T18:22:54.170Z,19.63
2022-08-05T18:25:20.799Z,19.58
2022-08-05T18:27:52.624Z,19.58
2022-08-05T18:30:19.518Z,19.44
2022-08-05T18:33:00.040Z,19.34
2022-08-05T18:36:01.351Z,19.23
2022-08-05T18:38:16.509Z,19.17
2022-08-05T18:41:55.541Z,19.06
2022-08-05T18:43:37.967Z,19.15
2022-08-05T18:46:09.647Z,18.99
2022-08-05T18:48:36.625Z,19.09
2022-08-05T18:52:02.989Z,19.15
2022-08-05T18:54:13.763Z,18.98
2022-08-05T18:56:40.392Z,18.87
2022-08-05T18:59:43.238Z,18.68
2022-08-05T19:01:57.268Z,18.57
2022-08-05T19:04:24.694Z,18.50
2022-08-05T19:06:51.538Z,18.39
2022-08-05T19:09:20.215Z,18.29
2022-08-05T19:12:00.130Z,18.33
2022-08-05T19:14:37.768Z,18.26
2022-08-05T19:17:12.885Z,18.20
2022-08-05T19:19:44.091Z,18.09
2022-08-05T19:22:17.089Z,18.01
2022-08-05T19:24:54.509Z,17.86
2022-08-05T19:27:24.409Z,17.90
2022-08-05T19:29:57.148Z,17.84
2022-08-05T19:32:26.089Z,17.92
2022-08-05T19:34:55.091Z,17.81
2022-08-05T19:37:34.829Z,17.82
2022-08-05T19:40:10.753Z,17.77
2022-08-05T19:42:38.884Z,17.71
2022-08-05T19:45:07.081Z,17.57
2022-08-05T19:47:37.716Z,17.58
2022-08-05T19:50:04.907Z,17.63
2022-08-05T19:52:34.396Z,17.60
2022-08-05T19:55:07.236Z,17.45
2022-08-05T19:58:19.633Z,17.45
2022-08-05T20:00:35.470Z,17.48
2022-08-05T20:03:01.949Z,17.41
2022-08-05T20:05:43.232Z,17.33
2022-08-05T20:08:16.876Z,17.48
2022-08-05T20:10:43.374Z,17.35
2022-08-05T20:13:10.828Z,17.25
2022-08-05T20:15:51.597Z,17.27
2022-08-05T20:18:34.053Z,17.28
2022-08-05T20:21:04.498Z,17.12
2022-08-05T20:23:40.055Z,17.14
2022-08-05T20:26:19.825Z,17.04
2022-08-05T20:28:48.454Z,16.86
2022-08-05T20:31:16.571Z,16.89
2022-08-05T20:33:44.037Z,17.03
2022-08-05T20:36:11.330Z,16.74
2022-08-05T20:38:38.276Z,16.85
2022-08-05T20:41:24.030Z,16.74
2022-08-05T20:43:59.928Z,16.65
2022-08-05T20:46:29.213Z,16.66
2022-08-05T20:48:55.805Z,16.68
2022-08-05T20:51:22.217Z,16.57
2022-08-05T20:53:56.433Z,16.54
2022-08-05T20:56:29.733Z,16.40
2022-08-05T20:58:59.848Z,16.41
2022-08-05T21:01:38.533Z,16.41
2022-08-05T21:04:07.136Z,16.38
2022-08-05T21:06:37.085Z,16.40
2022-08-05T21:09:05.514Z,16.42
2022-08-05T21:12:10.798Z,16.26
2022-08-05T21:14:18.635Z,16.27
2022-08-05T21:16:45.361Z,16.30
2022-08-05T21:19:11.994Z,16.21
2022-08-05T21:21:39.267Z,16.10
2022-08-05T21:24:13.221Z,15.98
2022-08-05T21:26:41.364Z,16.03
2022-08-05T21:29:10.077Z,16.07
2022-08-05T21:31:41.118Z,15.88
2022-08-05T21:34:08.649Z,16.02
2022-08-05T21:36:37.279Z,15.93
2022-08-05T21:39:03.770Z,15.99
2022-08-05T21:41:34.053Z,15.97
2022-08-05T21:44:04.329Z,15.96
2022-08-05T21:46:34.541Z,15.89
2022-08-05T21:49:02.019Z,15.88
2022-08-05T21:52:22.433Z,15.92
2022-08-05T21:54:14.956Z,15.90
2022-08-05T21:56:44.231Z,15.77
2022-08-05T21:59:22.628Z,15.66
2022-08-05T22:01:51.762Z,15.60
2022-08-05T22:04:21.156Z,15.67
2022-08-05T22:06:52.337Z,15.52
2022-08-05T22:09:21.025Z,15.44
2022-08-05T22:11:48.397Z,15.61
2022-08-05T22:14:35.503Z,15.59
2022-08-05T22:17:05.249Z,15.44
2022-08-05T22:20:01.117Z,15.28
2022-08-05T22:22:27.093Z,15.25
2022-08-05T22:25:21.035Z,15.15
2022-08-05T22:28:11.235Z,15.17
2022-08-05T22:30:44.270Z,15.14
2022-08-05T22:33:56.824Z,15.16
2022-08-05T22:36:14.704Z,15.17
2022-08-05T22:38:42.754Z,15.07
2022-08-05T22:41:10.210Z,15.13
2022-08-05T22:43:38.162Z,15.01
2022-08-05T22:46:13.043Z,15.11
2022-08-05T22:48:41.288Z,15.11
2022-08-05T22:51:08.033Z,14.99
2022-08-05T22:53:42.168Z,14.79
2022-08-05T22:56:09.903Z,14.79
2022-08-05T22:58:36.469Z,14.92
2022-08-05T23:01:02.884Z,14.96
2022-08-05T23:03:57.704Z,14.93
2022-08-05T23:06:19.117Z,14.98
2022-08-05T23:08:45.608Z,14.83
2022-08-05T23:11:18.522Z,14.63
2022-08-05T23:13:44.974Z,14.73
2022-08-05T23:16:26.115Z,14.63
2022-08-05T23:19:00.068Z,14.66
2022-08-05T23:21:42.371Z,14.68
2022-08-05T23:24:11.479Z,14.55
2022-08-05T23:26:38.108Z,14.43
2022-08-05T23:29:05.180Z,14.43
2022-08-05T23:31:31.768Z,14.26
2022-08-05T23:34:04.254Z,14.27
2022-08-05T23:36:41.479Z,14.10
2022-08-05T23:39:17.252Z,14.08
2022-08-05T23:41:50.478Z,14.03
2022-08-05T23:44:16.986Z,13.88
2022-08-05T23:46:46.390Z,13.52
2022-08-05T23:49:16.423Z,13.56
2022-08-05T23:52:02.704Z,13.65
2022-08-05T23:54:38.226Z,13.83
2022-08-05T23:57:06.385Z,13.59
